Time;durP1;ratioP1;P1;durP2;ratioP2;P2;SDS_P1;SDS_P2;PMS_P1;PMS_P2;Temp;Humidity;BMP_temperature;BMP_pressure;BME280_temperature;BME280_humidity;BME280_pressure;Samples;Min_cycle;Max_cycle;Signal;HPM_P1;HPM_P2
2022/07/22 00:01:38;;;;;;;6.25;1.65;;;;;;;16.00;69.55;101143.81;5050423;28;20067;-77
2022/07/22 00:04:04;;;;;;;5.30;2.03;;;;;;;15.95;69.69;101133.63;5049607;28;20033;-82
2022/07/22 00:06:30;;;;;;;6.50;1.65;;;;;;;15.92;70.04;101133.94;5048595;28;20029;-77
2022/07/22 00:08:56;;;;;;;4.15;1.77;;;;;;;15.91;70.43;101134.91;5048989;28;20021;-77
2022/07/22 00:11:22;;;;;;;6.75;2.17;;;;;;;15.91;70.67;101126.91;5055478;28;20037;-83
2022/07/22 00:13:49;;;;;;;13.02;2.50;;;;;;;15.87;70.90;101121.09;5047482;28;20033;-83
2022/07/22 00:16:15;;;;;;;2.72;1.73;;;;;;;15.82;71.22;101118.09;5050541;28;20369;-83
2022/07/22 00:18:41;;;;;;;5.70;2.20;;;;;;;15.83;71.62;101118.94;5049406;28;20552;-83
2022/07/22 00:21:07;;;;;;;3.90;2.00;;;;;;;15.85;71.46;101109.75;5049910;28;20028;-83
2022/07/22 00:23:33;;;;;;;9.50;1.60;;;;;;;15.85;71.21;101111.56;5030250;28;20394;-83
2022/07/22 00:25:59;;;;;;;3.35;1.85;;;;;;;15.83;71.51;101110.94;5063702;28;20039;-83
2022/07/22 00:28:25;;;;;;;5.65;1.88;;;;;;;15.80;71.60;101108.59;5054847;28;20021;-83
2022/07/22 00:30:50;;;;;;;4.13;2.03;;;;;;;15.75;71.60;101101.91;5051828;28;20025;-83
2022/07/22 00:33:16;;;;;;;7.15;2.60;;;;;;;15.62;71.84;101089.03;5051801;28;20440;-83
2022/07/22 00:35:42;;;;;;;7.47;1.88;;;;;;;15.36;72.59;101073.97;5053278;28;20512;-83
2022/07/22 00:38:08;;;;;;;5.88;2.20;;;;;;;15.11;73.90;101073.03;5049903;28;20033;-84
2022/07/22 00:40:34;;;;;;;5.10;2.08;;;;;;;14.93;74.66;101071.28;5033600;28;20087;-84
2022/07/22 00:43:01;;;;;;;5.80;2.13;;;;;;;14.98;74.85;101074.31;5051364;28;20556;-84
2022/07/22 00:45:27;;;;;;;9.88;2.03;;;;;;;15.09;74.93;101073.19;5052884;28;20029;-77
2022/07/22 00:47:53;;;;;;;4.95;2.13;;;;;;;15.19;74.68;101091.72;5052085;28;20041;-76
2022/07/22 00:50:20;;;;;;;7.07;2.30;;;;;;;15.21;74.81;101091.56;5051044;28;20029;-83
2022/07/22 00:52:47;;;;;;;6.40;1.90;;;;;;;15.29;74.82;101093.41;5047119;28;20056;-82
2022/07/22 00:55:13;;;;;;;5.57;1.63;;;;;;;15.34;74.69;101089.28;5034740;28;20032;-82
2022/07/22 00:57:40;;;;;;;5.50;1.80;;;;;;;15.40;74.72;101078.97;5051989;28;20041;-83
2022/07/22 01:00:09;;;;;;;7.43;1.92;;;;;;;15.46;74.67;101081.00;5048694;28;20573;-83
2022/07/22 01:02:35;;;;;;;5.35;2.15;;;;;;;15.44;74.78;101085.66;5030125;28;20048;-83
2022/07/22 01:05:01;;;;;;;5.97;2.05;;;;;;;15.48;74.38;101084.34;5049433;28;20385;-83
2022/07/22 01:07:27;;;;;;;3.50;1.67;;;;;;;15.47;74.21;101090.66;5047502;28;20028;-83
2022/07/22 01:09:52;;;;;;;3.92;2.20;;;;;;;15.41;74.24;101094.81;5049556;28;20055;-83
2022/07/22 01:12:18;;;;;;;7.57;1.73;;;;;;;15.33;74.37;101086.78;5049757;28;20114;-83
2022/07/22 01:14:44;;;;;;;3.72;1.83;;;;;;;15.33;74.65;101100.09;5021329;28;20095;-83
2022/07/22 01:17:11;;;;;;;5.63;1.92;;;;;;;15.32;74.71;101085.94;5049039;28;20032;-83
2022/07/22 01:19:38;;;;;;;3.65;1.90;;;;;;;15.33;74.78;101087.63;5044058;28;20452;-83
2022/07/22 01:22:07;;;;;;;5.32;2.00;;;;;;;15.36;74.80;101086.44;5050443;28;20152;-83
2022/07/22 01:24:34;;;;;;;4.00;2.00;;;;;;;15.35;74.84;101082.94;5038591;28;20036;-83
2022/07/22 01:27:00;;;;;;;3.42;2.00;;;;;;;15.17;75.16;101088.38;5066193;28;20036;-83
2022/07/22 01:29:26;;;;;;;5.60;2.55;;;;;;;14.95;75.83;101085.28;5049751;28;20033;-83
2022/07/22 01:31:52;;;;;;;4.28;2.45;;;;;;;14.76;76.67;101084.44;5045471;28;20025;-83
2022/07/22 01:34:18;;;;;;;6.20;2.28;;;;;;;14.60;77.46;101084.34;5049150;28;20045;-83
2022/07/22 01:36:44;;;;;;;4.03;2.13;;;;;;;14.52;78.30;101088.59;5086122;28;20108;-84
2022/07/22 01:39:11;;;;;;;6.57;2.83;;;;;;;14.55;78.63;101095.44;5055863;28;20111;-76
2022/07/22 01:41:37;;;;;;;6.13;2.42;;;;;;;14.63;78.70;101092.84;5032864;28;20136;-76
2022/07/22 01:44:06;;;;;;;7.78;2.35;;;;;;;14.68;78.82;101094.19;5081552;28;20028;-83
2022/07/22 01:46:33;;;;;;;4.22;2.20;;;;;;;14.70;78.96;101093.03;5032026;28;20124;-83
2022/07/22 01:48:59;;;;;;;4.80;2.20;;;;;;;14.72;79.09;101096.38;5053115;28;20112;-83
2022/07/22 01:51:29;;;;;;;6.38;2.00;;;;;;;14.76;79.23;101102.25;5050247;28;20029;-83
2022/07/22 01:53:55;;;;;;;5.63;1.98;;;;;;;14.79;79.22;101093.97;5055301;28;20055;-84
2022/07/22 01:56:21;;;;;;;5.95;2.42;;;;;;;14.86;79.41;101096.81;5036474;28;20371;-84
2022/07/22 01:58:49;;;;;;;5.22;2.38;;;;;;;14.92;79.19;101084.75;5053398;28;20037;-83
2022/07/22 02:01:21;;;;;;;4.88;2.20;;;;;;;14.99;79.08;101085.75;5051684;28;20079;-83
2022/07/22 02:03:46;;;;;;;3.65;1.80;;;;;;;15.04;79.03;101086.13;5053307;28;20036;-83
2022/07/22 02:06:12;;;;;;;4.03;2.22;;;;;;;15.09;78.97;101078.50;5053539;28;20029;-84
2022/07/22 02:08:38;;;;;;;8.43;2.35;;;;;;;15.09;79.00;101080.34;5052343;28;20032;-84
2022/07/22 02:11:16;;;;;;;6.22;2.40;;;;;;;15.11;79.04;101076.50;5050171;28;20730;-84
2022/07/22 02:14:10;;;;;;;2.47;1.60;;;;;;;15.13;79.04;101071.88;5048497;28;20091;-84
2022/07/22 02:16:37;;;;;;;3.60;1.73;;;;;;;15.17;79.11;101067.06;5033502;28;20067;-84
2022/07/22 02:19:05;;;;;;;3.00;1.60;;;;;;;15.18;79.11;101071.38;5052743;28;20033;-84
2022/07/22 02:21:31;;;;;;;11.88;2.17;;;;;;;15.15;79.12;101073.53;5053217;28;20028;-84
2022/07/22 02:23:58;;;;;;;2.78;1.80;;;;;;;15.08;79.32;101076.00;5046147;28;20087;-84
2022/07/22 02:26:24;;;;;;;4.53;2.10;;;;;;;15.09;79.47;101073.19;5061260;28;20029;-84
2022/07/22 02:28:50;;;;;;;3.95;1.88;;;;;;;15.13;79.35;101076.34;5069282;28;20031;-84
2022/07/22 02:31:16;;;;;;;4.45;2.05;;;;;;;15.19;79.44;101069.56;5052623;28;20037;-83
2022/07/22 02:33:42;;;;;;;3.45;1.90;;;;;;;15.23;79.39;101068.25;5028179;28;20604;-84
2022/07/22 02:36:09;;;;;;;3.70;2.42;;;;;;;15.21;79.33;101078.25;5052059;28;20062;-84
2022/07/22 02:38:36;;;;;;;4.05;1.80;;;;;;;15.16;79.67;101075.22;5052870;28;20867;-84
2022/07/22 02:41:01;;;;;;;3.60;1.98;;;;;;;15.12;79.83;101070.22;5052023;28;20025;-84
2022/07/22 02:43:28;;;;;;;4.03;2.00;;;;;;;15.03;80.20;101062.34;5039523;28;20037;-84
2022/07/22 02:45:54;;;;;;;3.53;1.65;;;;;;;15.02;80.42;101068.66;5052435;28;20040;-84
2022/07/22 02:48:20;;;;;;;5.70;1.95;;;;;;;14.97;80.75;101067.28;5052237;28;20401;-83
2022/07/22 02:50:47;;;;;;;7.70;2.05;;;;;;;14.90;81.05;101071.59;5061993;28;20390;-84
2022/07/22 02:53:16;;;;;;;5.88;1.83;;;;;;;14.83;81.17;101063.38;5051264;28;20095;-84
2022/07/22 02:55:42;;;;;;;5.38;2.13;;;;;;;14.76;81.51;101057.00;5052652;28;20037;-84
2022/07/22 02:58:09;;;;;;;5.22;2.13;;;;;;;14.71;82.18;101054.81;5085050;28;20078;-84
2022/07/22 03:00:39;;;;;;;5.88;1.80;;;;;;;14.73;82.17;101044.84;5050693;28;20041;-84
2022/07/22 03:03:06;;;;;;;4.50;2.00;;;;;;;14.76;81.92;101054.34;5053959;28;20094;-84
2022/07/22 03:05:33;;;;;;;4.80;2.00;;;;;;;14.70;82.19;101039.81;5052049;28;20061;-84
2022/07/22 03:08:31;;;;;;;4.75;1.92;;;;;;;14.62;82.43;101042.47;5018620;28;20037;-84
2022/07/22 03:10:58;;;;;;;4.95;1.98;;;;;;;14.64;82.69;101038.63;5051728;28;20420;-84
2022/07/22 03:13:24;;;;;;;6.40;2.00;;;;;;;14.74;82.47;101040.34;5051489;28;20032;-84
2022/07/22 03:15:50;;;;;;;3.58;1.80;;;;;;;14.79;82.16;101038.09;5031135;28;20033;-84
2022/07/22 03:18:16;;;;;;;4.78;2.15;;;;;;;14.86;81.63;101030.28;5029416;28;20037;-84
2022/07/22 03:20:42;;;;;;;3.35;1.92;;;;;;;14.90;81.65;101031.66;5029630;28;20056;-84
2022/07/22 03:23:08;;;;;;;7.07;2.10;;;;;;;14.92;81.46;101018.19;5037045;28;20071;-84
2022/07/22 03:25:34;;;;;;;5.93;2.10;;;;;;;14.91;81.39;101019.19;5046386;28;20045;-84
2022/07/22 03:28:01;;;;;;;3.08;1.90;;;;;;;14.86;81.63;101012.50;5067016;28;20059;-84
2022/07/22 03:30:27;;;;;;;2.47;1.50;;;;;;;14.82;81.75;101018.31;5052450;28;20025;-84
2022/07/22 03:32:53;;;;;;;4.35;1.75;;;;;;;14.81;81.95;101024.63;5067277;28;20037;-84
2022/07/22 03:35:21;;;;;;;6.22;2.53;;;;;;;14.82;82.00;101029.78;5052342;28;20523;-84
2022/07/22 03:37:47;;;;;;;9.00;2.08;;;;;;;14.86;81.81;101019.66;5027091;28;20028;-84
2022/07/22 03:40:13;;;;;;;3.25;1.52;;;;;;;14.94;81.71;101022.34;5052770;28;20109;-84
2022/07/22 03:42:41;;;;;;;3.90;1.80;;;;;;;14.96;81.50;101028.38;5067781;28;20095;-84
2022/07/22 03:45:09;;;;;;;2.95;2.20;;;;;;;14.92;81.52;101021.69;5067738;28;20060;-84
2022/07/22 03:47:38;;;;;;;4.47;1.83;;;;;;;14.91;81.49;101024.53;5049362;28;20033;-84
2022/07/22 03:50:05;;;;;;;3.28;1.58;;;;;;;14.96;81.56;101017.72;5034546;28;20155;-84
2022/07/22 03:52:31;;;;;;;3.78;2.03;;;;;;;14.96;81.52;101019.53;5049754;28;20035;-84
2022/07/22 03:55:02;;;;;;;8.38;2.40;;;;;;;14.90;81.70;101021.03;5084362;28;20033;-84
2022/07/22 03:57:29;;;;;;;7.32;2.20;;;;;;;14.87;82.02;101024.81;5084588;28;20039;-84
2022/07/22 04:00:04;;;;;;;4.20;2.08;;;;;;;14.85;81.97;101016.16;5068314;28;20032;-84
2022/07/22 04:02:40;;;;;;;5.95;2.05;;;;;;;14.82;82.14;101020.97;5067080;28;20086;-84
2022/07/22 04:05:08;;;;;;;4.03;2.10;;;;;;;14.83;82.18;101012.81;5053930;28;20096;-84
2022/07/22 04:07:35;;;;;;;5.28;2.70;;;;;;;14.76;82.13;101019.75;5057063;28;20040;-84
2022/07/22 04:10:06;;;;;;;4.50;2.30;;;;;;;14.64;82.43;101011.19;5056540;28;20384;-84
2022/07/22 04:12:37;;;;;;;;;;;;;;;14.48;82.93;101011.91;5036324;28;20592;-84
2022/07/22 04:15:13;;;;;;;4.13;2.08;;;;;;;14.55;82.77;101004.16;5043527;28;19913;-84
2022/07/22 04:17:39;;;;;;;4.25;2.53;;;;;;;14.58;82.63;100998.53;5082571;28;20075;-84
2022/07/22 04:20:06;;;;;;;4.97;2.35;;;;;;;14.62;82.76;101000.72;5072047;28;20476;-84
2022/07/22 04:22:42;;;;;;;3.17;2.10;;;;;;;14.66;82.50;100995.91;5082035;28;20036;-84
2022/07/22 04:25:08;;;;;;;3.55;2.15;;;;;;;14.67;82.51;101002.91;5050746;28;20036;-84
2022/07/22 04:27:35;;;;;;;3.90;2.58;;;;;;;14.70;82.78;101002.56;5051152;28;20112;-84
2022/07/22 04:30:01;;;;;;;6.47;2.08;;;;;;;14.73;82.86;100986.28;5045292;28;20040;-84
2022/07/22 04:32:27;;;;;;;5.63;2.45;;;;;;;14.75;82.60;100986.97;5050105;28;20021;-84
2022/07/22 04:34:53;;;;;;;9.40;2.85;;;;;;;14.70;82.49;100991.94;5051220;28;20060;-84
2022/07/22 04:37:19;;;;;;;6.72;2.42;;;;;;;14.63;82.76;100985.59;5057689;28;20065;-84
2022/07/22 04:39:45;;;;;;;6.88;2.30;;;;;;;14.56;83.08;100981.88;5049700;28;20511;-84
2022/07/22 04:42:11;;;;;;;4.50;2.60;;;;;;;14.52;83.53;100986.69;5049845;28;20073;-84
2022/07/22 04:44:38;;;;;;;4.53;2.80;;;;;;;14.44;83.53;100987.47;5044605;28;20037;-84
2022/07/22 04:47:04;;;;;;;4.78;2.60;;;;;;;14.41;83.88;100993.13;5031118;28;20055;-84
2022/07/22 04:49:30;;;;;;;6.68;2.90;;;;;;;14.43;84.00;100983.13;5049372;28;20033;-84
2022/07/22 04:51:58;;;;;;;5.43;2.58;;;;;;;14.48;83.86;100986.16;5067337;28;20052;-84
2022/07/22 04:54:35;;;;;;;4.05;2.00;;;;;;;14.51;83.89;100977.88;5049294;28;20037;-84
2022/07/22 04:57:01;;;;;;;2.80;2.20;;;;;;;14.59;83.87;100977.06;5049185;28;20037;-84
2022/07/22 04:59:27;;;;;;;3.80;2.92;;;;;;;14.64;83.88;100979.25;5047890;28;20057;-84
2022/07/22 05:01:53;;;;;;;6.32;2.20;;;;;;;14.66;83.65;100974.63;5050348;28;20071;-84
2022/07/22 05:04:19;;;;;;;3.10;2.28;;;;;;;14.67;83.45;100975.47;5020803;28;20037;-84
2022/07/22 05:06:45;;;;;;;6.25;3.15;;;;;;;14.66;83.40;100971.13;5034375;28;20378;-84
2022/07/22 05:09:11;;;;;;;5.18;2.50;;;;;;;14.68;83.61;100977.97;5050325;28;20039;-84
2022/07/22 05:11:37;;;;;;;3.63;2.53;;;;;;;14.65;83.57;100972.97;5083788;28;20043;-84
2022/07/22 05:14:03;;;;;;;3.58;1.98;;;;;;;14.64;83.87;100971.28;5025068;28;20029;-84
2022/07/22 05:16:29;;;;;;;7.25;2.35;;;;;;;14.63;83.80;100970.47;5046967;28;20038;-84
2022/07/22 05:18:55;;;;;;;4.68;2.45;;;;;;;14.64;83.97;100974.78;5060768;28;20091;-84
2022/07/22 05:21:21;;;;;;;2.85;2.08;;;;;;;14.64;83.88;100981.94;5051027;28;20032;-84
2022/07/22 05:23:47;;;;;;;4.97;1.80;;;;;;;14.61;83.97;100972.44;5054002;28;20040;-84
2022/07/22 05:26:15;;;;;;;6.63;3.20;;;;;;;14.60;84.28;100976.09;5035942;28;20036;-84
2022/07/22 05:28:40;;;;;;;4.50;2.97;;;;;;;14.62;84.40;100979.41;5069876;28;20402;-84
2022/07/22 05:31:07;;;;;;;3.50;2.65;;;;;;;14.62;84.35;100978.59;5019023;28;20292;-84
2022/07/22 05:33:35;;;;;;;3.70;2.45;;;;;;;14.56;84.64;100980.06;5030189;28;20102;-85
2022/07/22 05:36:05;;;;;;;6.65;2.85;;;;;;;14.53;84.73;100977.72;5041446;28;20082;-84
2022/07/22 05:38:42;;;;;;;4.50;2.30;;;;;;;14.49;85.14;100981.69;5072133;28;20091;-84
2022/07/22 05:41:09;;;;;;;5.95;2.17;;;;;;;14.50;85.28;100976.22;5045717;28;20112;-84
2022/07/22 05:43:35;;;;;;;2.80;2.38;;;;;;;14.55;85.29;100975.75;5036513;28;20025;-84
2022/07/22 05:46:04;;;;;;;5.20;2.20;;;;;;;14.61;85.22;100968.94;5048640;28;20033;-84
2022/07/22 05:48:30;;;;;;;8.48;2.70;;;;;;;14.69;85.25;100970.81;5053104;28;20033;-84
2022/07/22 05:50:56;;;;;;;8.35;2.63;;;;;;;14.75;84.93;100971.00;5082332;28;20033;-84
2022/07/22 05:53:22;;;;;;;4.57;2.40;;;;;;;14.83;84.88;100969.41;5052236;28;20035;-84
2022/07/22 05:55:48;;;;;;;4.20;2.22;;;;;;;14.88;84.81;100975.09;5047097;28;20040;-84
2022/07/22 05:58:13;;;;;;;5.45;2.10;;;;;;;14.91;84.40;100969.44;5051188;28;20037;-85
2022/07/22 06:00:40;;;;;;;11.10;3.30;;;;;;;14.97;84.46;100966.13;5037415;28;20025;-84
2022/07/22 06:03:06;;;;;;;4.57;3.13;;;;;;;14.99;84.20;100974.81;5050478;28;20479;-84
2022/07/22 06:05:33;;;;;;;8.65;2.83;;;;;;;15.00;84.30;100965.81;5051931;28;20025;-84
2022/07/22 06:07:58;;;;;;;4.43;2.30;;;;;;;15.04;84.16;100970.81;5051054;28;20032;-84
2022/07/22 06:10:32;;;;;;;5.93;3.20;;;;;;;15.05;84.18;100967.19;5046247;28;20041;-84
2022/07/22 06:12:58;;;;;;;7.05;2.60;;;;;;;15.09;84.09;100961.38;5046498;28;20033;-84
2022/07/22 06:15:24;;;;;;;6.72;2.75;;;;;;;15.15;83.95;100957.22;5029891;28;20040;-84
2022/07/22 06:17:51;;;;;;;4.90;2.35;;;;;;;15.19;83.86;100955.06;5054476;28;20041;-84
2022/07/22 06:20:18;;;;;;;4.97;2.80;;;;;;;15.21;83.71;100961.06;5048543;28;20025;-84
2022/07/22 06:22:44;;;;;;;6.28;2.63;;;;;;;15.16;83.73;100961.53;5084648;28;20060;-84
2022/07/22 06:25:10;;;;;;;5.00;2.17;;;;;;;15.15;83.76;100964.34;5028714;28;20049;-84
2022/07/22 06:27:35;;;;;;;4.88;2.10;;;;;;;15.16;83.81;100966.84;5049624;28;20042;-84
2022/07/22 06:30:03;;;;;;;6.32;2.60;;;;;;;15.16;83.70;100969.53;5050855;28;20538;-84
2022/07/22 06:32:29;;;;;;;7.63;2.60;;;;;;;15.18;83.61;100969.38;5034496;28;20107;-84
2022/07/22 06:34:55;;;;;;;4.22;2.75;;;;;;;15.21;83.39;100975.19;5049074;28;20087;-84
2022/07/22 06:37:21;;;;;;;3.00;2.60;;;;;;;15.25;83.30;100967.72;5085790;28;20028;-84
2022/07/22 06:39:47;;;;;;;4.57;2.33;;;;;;;15.29;83.26;100962.94;5052152;28;20068;-83
2022/07/22 06:42:29;;;;;;;4.97;2.33;;;;;;;15.35;82.80;100956.94;5048475;28;20108;-84
2022/07/22 06:45:24;;;;;;;4.47;2.42;;;;;;;15.42;82.51;100962.44;5055403;28;20029;-84
2022/07/22 06:47:53;;;;;;;8.32;2.63;;;;;;;15.43;82.36;100964.13;5054566;28;20028;-84
2022/07/22 06:50:19;;;;;;;6.45;3.00;;;;;;;15.37;82.49;100965.59;5053304;28;20110;-85
2022/07/22 06:52:45;;;;;;;9.70;3.03;;;;;;;15.34;82.88;100963.25;5034777;28;20033;-84
2022/07/22 06:55:11;;;;;;;4.43;2.67;;;;;;;15.30;83.32;100962.75;5052461;28;20036;-84
2022/07/22 06:57:42;;;;;;;5.57;2.72;;;;;;;15.32;83.74;100962.59;5084854;28;20037;-84
2022/07/22 07:00:10;;;;;;;6.03;3.03;;;;;;;15.44;83.93;100960.44;5047682;28;20025;-84
2022/07/22 07:02:59;;;;;;;5.05;2.47;;;;;;;15.65;83.82;100967.13;5062074;28;20051;-84
2022/07/22 07:05:27;;;;;;;8.25;2.58;;;;;;;15.82;83.95;100962.63;5064715;28;20120;-85
2022/07/22 07:07:54;;;;;;;4.60;2.85;;;;;;;15.99;83.65;100964.34;5042819;28;20304;-84
2022/07/22 07:10:20;;;;;;;3.13;2.28;;;;;;;16.14;82.91;100963.66;5051776;28;20033;-84
2022/07/22 07:12:59;;;;;;;6.57;2.00;;;;;;;16.23;82.33;100965.31;5050157;28;20024;-84
2022/07/22 07:15:38;;;;;;;7.65;2.20;;;;;;;16.33;81.86;100962.47;5084842;28;20032;-84
2022/07/22 07:18:07;;;;;;;5.82;2.38;;;;;;;16.53;81.44;100966.59;5030570;28;20029;-84
2022/07/22 07:20:33;;;;;;;5.38;1.85;;;;;;;16.66;80.82;100961.53;5050321;28;20043;-84
2022/07/22 07:23:02;;;;;;;5.05;2.30;;;;;;;16.77;79.76;100956.84;5047687;28;20033;-84
2022/07/22 07:25:31;;;;;;;6.22;2.53;;;;;;;16.86;79.40;100972.66;5048634;28;20448;-84
2022/07/22 07:27:57;;;;;;;6.00;1.90;;;;;;;16.95;78.59;100964.59;5033280;28;20040;-84
2022/07/22 07:30:40;;;;;;;6.82;1.77;;;;;;;17.04;78.22;100968.88;5029037;28;20032;-84
2022/07/22 07:33:06;;;;;;;6.63;2.08;;;;;;;17.11;77.29;100966.41;5052991;28;20021;-84
2022/07/22 07:35:32;;;;;;;7.10;2.03;;;;;;;17.16;76.93;100955.19;5054295;28;20139;-84
2022/07/22 07:37:59;;;;;;;3.47;2.17;;;;;;;17.22;76.66;100960.66;5049648;28;20040;-83
2022/07/22 07:40:25;;;;;;;5.40;2.20;;;;;;;17.28;76.25;100955.63;5049397;28;20047;-84
2022/07/22 07:42:51;;;;;;;9.15;2.40;;;;;;;17.34;76.03;100949.56;5030607;28;20048;-84
2022/07/22 07:45:17;;;;;;;3.17;1.63;;;;;;;17.48;75.65;100956.00;5043548;28;20029;-83
2022/07/22 07:47:43;;;;;;;6.38;1.70;;;;;;;17.63;74.98;100952.56;5031710;28;20072;-84
2022/07/22 07:50:12;;;;;;;6.03;1.90;;;;;;;17.70;74.24;100948.97;5049923;28;20505;-84
2022/07/22 07:52:39;;;;;;;4.43;1.88;;;;;;;17.76;73.85;100942.06;5048920;28;20705;-84
2022/07/22 07:55:08;;;;;;;5.10;1.90;;;;;;;17.90;73.49;100948.47;5049467;28;20036;-83
2022/07/22 07:57:34;;;;;;;6.22;1.80;;;;;;;18.00;72.95;100947.41;5023918;28;20099;-83
2022/07/22 08:00:04;;;;;;;5.18;1.70;;;;;;;18.19;72.28;100941.56;5047954;28;20029;-83
2022/07/22 08:02:39;;;;;;;3.75;1.63;;;;;;;18.40;71.47;100931.97;5048775;28;20041;-83
2022/07/22 08:05:09;;;;;;;7.00;1.92;;;;;;;18.53;70.78;100936.69;5066472;28;20048;-83
2022/07/22 08:07:36;;;;;;;7.00;2.83;;;;;;;18.52;70.03;100929.66;5047242;28;20051;-83
2022/07/22 08:10:04;;;;;;;6.13;1.58;;;;;;;18.55;69.61;100933.81;5051298;28;20087;-83
2022/07/22 08:12:48;;;;;;;;;;;;;;;18.32;69.20;100932.91;5040930;28;20036;-83
2022/07/22 08:15:27;;;;;;;2.97;1.35;;;;;;;18.42;69.93;100919.25;5050904;28;19912;-83
2022/07/22 08:17:54;;;;;;;5.15;1.60;;;;;;;18.46;69.50;100927.72;5078428;28;20540;-83
2022/07/22 08:20:21;;;;;;;3.88;1.77;;;;;;;18.43;69.03;100928.09;5047890;28;20044;-83
2022/07/22 08:22:47;;;;;;;3.15;1.48;;;;;;;18.31;68.81;100928.56;5035642;28;20477;-83
2022/07/22 08:25:14;;;;;;;3.67;1.80;;;;;;;18.28;68.55;100928.94;5079214;28;20029;-83
2022/07/22 08:27:40;;;;;;;4.13;1.45;;;;;;;18.30;68.64;100918.84;5048188;28;20032;-82
2022/07/22 08:30:06;;;;;;;17.35;2.92;;;;;;;18.38;68.27;100919.81;5062120;28;20032;-83
2022/07/22 08:32:34;;;;;;;7.13;1.63;;;;;;;18.31;67.72;100920.53;5031916;28;20078;-84
2022/07/22 08:35:00;;;;;;;4.72;1.55;;;;;;;18.28;67.33;100923.59;5065885;28;20060;-83
2022/07/22 08:37:26;;;;;;;5.22;1.70;;;;;;;18.27;67.06;100921.09;5081677;28;20038;-83
2022/07/22 08:39:53;;;;;;;3.67;1.35;;;;;;;18.28;66.92;100920.91;5047180;28;20143;-83
2022/07/22 08:42:22;;;;;;;3.97;1.58;;;;;;;18.28;66.76;100925.41;5050152;28;20036;-82
2022/07/22 08:44:49;;;;;;;6.60;1.80;;;;;;;18.29;66.71;100922.56;5048493;28;20043;-83
2022/07/22 08:47:15;;;;;;;6.95;2.72;;;;;;;18.27;66.50;100921.91;5045971;28;20123;-83
2022/07/22 08:50:02;;;;;;;7.05;1.83;;;;;;;18.30;66.64;100918.06;5045227;28;20053;-83
2022/07/22 08:52:42;;;;;;;3.15;1.55;;;;;;;18.32;66.51;100922.19;5048368;28;20033;-83
2022/07/22 08:55:09;;;;;;;9.13;1.77;;;;;;;18.38;66.18;100922.47;5046038;28;20036;-76
2022/07/22 08:57:36;;;;;;;5.18;1.65;;;;;;;18.43;65.75;100920.06;5050791;28;20071;-77
2022/07/22 09:00:10;;;;;;;3.55;1.67;;;;;;;18.48;65.70;100923.00;5028283;28;20474;-83
2022/07/22 09:02:41;;;;;;;4.97;1.83;;;;;;;18.46;65.37;100922.34;5049670;28;20060;-82
2022/07/22 09:05:13;;;;;;;3.95;1.98;;;;;;;18.44;65.25;100925.22;5065466;28;20021;-82
2022/07/22 09:07:42;;;;;;;4.38;1.38;;;;;;;18.45;65.14;100926.06;5048498;28;20466;-82
2022/07/22 09:10:17;;;;;;;4.47;1.50;;;;;;;18.40;64.43;100917.75;5045000;28;20579;-82
2022/07/22 09:13:06;;;;;;;;;;;;;;;18.21;64.98;100920.81;5022347;28;20037;-82
2022/07/22 09:15:53;;;;;;;7.32;1.40;;;;;;;18.31;64.67;100925.06;5084872;28;19970;-82
2022/07/22 09:18:52;;;;;;;4.97;1.77;;;;;;;18.37;64.49;100921.63;5049549;28;20460;-82
2022/07/22 09:21:43;;;;;;;6.38;1.63;;;;;;;18.39;63.86;100916.94;5046580;28;20485;-76
2022/07/22 09:24:32;;;;;;;5.70;1.60;;;;;;;18.34;63.26;100919.34;5044842;28;20481;-82
2022/07/22 09:27:10;;;;;;;5.22;2.40;;;;;;;18.31;63.83;100925.88;5048093;28;20367;-82
2022/07/22 09:29:49;;;;;;;4.28;1.83;;;;;;;18.35;63.76;100919.16;5062600;28;20037;-82
2022/07/22 09:32:17;;;;;;;5.32;1.30;;;;;;;18.46;63.39;100912.50;5043142;28;20431;-82
2022/07/22 09:35:04;;;;;;;3.67;1.85;;;;;;;18.50;62.84;100914.81;5049018;28;20478;-82
2022/07/22 09:37:57;;;;;;;4.65;1.50;;;;;;;18.54;62.77;100913.44;5051729;28;20040;-82
2022/07/22 09:40:25;;;;;;;4.13;1.80;;;;;;;18.50;63.00;100915.63;5076247;28;20466;-83
2022/07/22 09:42:53;;;;;;;10.68;2.50;;;;;;;18.36;62.49;100917.31;5045958;28;20475;-82
2022/07/22 09:45:21;;;;;;;6.65;1.42;;;;;;;18.26;62.65;100912.22;5047544;28;20116;-82
2022/07/22 09:47:49;;;;;;;4.95;1.48;;;;;;;18.25;63.08;100915.91;5040596;28;20474;-82
2022/07/22 09:50:46;;;;;;;7.53;1.45;;;;;;;18.45;62.92;100921.53;5011829;28;20045;-82
2022/07/22 09:53:38;;;;;;;2.97;1.42;;;;;;;18.67;62.21;100910.06;5034866;28;20071;-82
2022/07/22 09:56:08;;;;;;;2.85;1.23;;;;;;;18.88;61.70;100913.81;5039775;28;20061;-82
2022/07/22 09:58:35;;;;;;;6.03;1.38;;;;;;;19.00;61.36;100908.81;5023800;28;20029;-82
2022/07/22 10:01:07;;;;;;;6.63;1.45;;;;;;;19.13;61.11;100914.34;5045387;28;20029;-82
2022/07/22 10:03:36;;;;;;;9.95;2.00;;;;;;;19.16;60.73;100895.19;5043694;28;20032;-82
2022/07/22 10:06:05;;;;;;;4.50;1.65;;;;;;;19.14;60.83;100904.47;5040383;28;20540;-82
2022/07/22 10:08:33;;;;;;;3.53;1.45;;;;;;;19.03;60.88;100892.38;5045691;28;20033;-82
2022/07/22 10:11:05;;;;;;;4.60;1.70;;;;;;;18.99;60.50;100899.94;5063844;28;20039;-82
2022/07/22 10:13:32;;;;;;;4.97;1.60;;;;;;;18.94;60.88;100903.19;5022760;28;20774;-82
2022/07/22 10:16:00;;;;;;;5.88;1.40;;;;;;;18.91;60.60;100897.38;5049840;28;20103;-83
2022/07/22 10:18:29;;;;;;;4.97;1.70;;;;;;;18.84;60.26;100895.44;5082751;28;20037;-82
2022/07/22 10:21:10;;;;;;;7.97;1.92;;;;;;;18.78;59.95;100896.19;5015942;28;20033;-82
2022/07/22 10:23:56;;;;;;;5.03;1.83;;;;;;;18.72;60.12;100895.13;5049938;28;20478;-82
2022/07/22 10:26:41;;;;;;;;;;;;;;;18.77;60.18;100894.56;5052347;28;20032;-83
2022/07/22 10:29:39;;;;;;;4.05;1.20;;;;;;;19.08;58.82;100888.09;5048540;28;19913;-82
2022/07/22 10:32:17;;;;;;;4.57;1.25;;;;;;;19.30;57.75;100881.94;5041050;28;20466;-86
2022/07/22 10:35:06;;;;;;;3.78;1.00;;;;;;;19.48;57.07;100883.34;5046687;28;20056;-85
2022/07/22 10:37:35;;;;;;;5.72;1.45;;;;;;;19.66;56.69;100881.00;5052064;28;20055;-86
2022/07/22 10:40:16;;;;;;;5.68;1.38;;;;;;;19.79;55.97;100884.81;5030322;28;20033;-85
2022/07/22 10:42:57;;;;;;;4.30;1.20;;;;;;;19.84;55.61;100866.28;5040489;28;20487;-87
2022/07/22 10:45:28;;;;;;;4.10;1.17;;;;;;;19.86;55.77;100871.47;5036894;28;20738;-87
2022/07/22 10:47:57;;;;;;;2.83;1.08;;;;;;;19.97;55.98;100873.59;5058045;28;20040;-86
2022/07/22 10:50:38;;;;;;;6.82;1.20;;;;;;;20.07;55.63;100865.22;5048079;28;20039;-86
2022/07/22 10:53:08;;;;;;;5.93;1.48;;;;;;;20.13;56.09;100866.28;5049833;28;20025;-86
2022/07/22 10:55:36;;;;;;;3.75;1.30;;;;;;;20.16;56.04;100858.66;5043975;28;20774;-86
2022/07/22 10:58:32;;;;;;;3.42;1.40;;;;;;;20.12;55.16;100852.03;5045500;28;20031;-86
2022/07/22 11:01:03;;;;;;;;;;;;;;;20.03;55.29;100856.75;5044213;28;20045;-78
2022/07/22 11:03:29;;;;;;;4.15;0.90;;;;;;;20.28;55.87;100844.69;5053062;28;19917;-79
2022/07/22 11:05:56;;;;;;;3.45;1.30;;;;;;;20.46;55.08;100846.84;5049232;28;20534;-86
2022/07/22 11:08:22;;;;;;;8.52;1.45;;;;;;;20.55;54.61;100847.47;5047778;28;20040;-86
2022/07/22 11:10:49;;;;;;;2.38;1.05;;;;;;;20.65;54.56;100845.25;5046132;28;20500;-78
2022/07/22 11:13:36;;;;;;;4.40;1.17;;;;;;;20.75;53.65;100839.47;5029598;28;20025;-79
2022/07/22 11:16:34;;;;;;;3.45;0.95;;;;;;;20.87;52.66;100844.25;5047235;28;20029;-86
2022/07/22 11:19:02;;;;;;;3.78;1.00;;;;;;;21.02;53.79;100834.19;5015267;28;20079;-87
2022/07/22 11:21:31;;;;;;;4.78;1.40;;;;;;;21.14;53.40;100837.09;5042156;28;20401;-85
2022/07/22 11:24:01;;;;;;;2.30;1.25;;;;;;;21.24;52.48;100836.69;5041563;28;20097;-86
2022/07/22 11:26:46;;;;;;;5.63;1.02;;;;;;;21.27;51.45;100832.75;5053143;28;20040;-79
2022/07/22 11:29:18;;;;;;;3.83;0.95;;;;;;;21.33;50.76;100831.94;5047498;28;20029;-86
2022/07/22 11:31:44;;;;;;;4.68;1.00;;;;;;;21.41;50.77;100831.72;5051765;28;20063;-86
2022/07/22 11:34:13;;;;;;;4.57;1.10;;;;;;;21.47;50.15;100829.25;5053122;28;20398;-87
2022/07/22 11:36:42;;;;;;;4.18;1.08;;;;;;;21.52;49.91;100821.38;5052707;28;20087;-79
2022/07/22 11:39:12;;;;;;;4.70;1.10;;;;;;;21.61;49.53;100824.69;5075612;28;20067;-79